Metar z pełnej godziny Komunikat METAR ze strony awiacja.imgw.pl Metar G00 EPML METAR EPML 241100Z AUTO 15004KT 110V180 9000 NCD M04/M09 Q1036=